Station: ELLX - 29/05/2017 09:20Z (il y a 10 minutes)
ELLX 290920Z 15007KT 120V200 CAVOK 26/14 Q1015 NOSIG
Vent du 150º - 7 kt (vent de direction variable de 120º à 200º)
Visibilité > 10 km et plafond haut ou pas de nuages significatifs
Température: +26ºC - Point de rosée: +14ºC - QNH: 1015 hPa
Pas de changement significatif prévu dans les 2 heures qui suivent l'observation